Time;durP1;ratioP1;P1;durP2;ratioP2;P2;SDS_P1;SDS_P2;PMS_P1;PMS_P2;Temp;Humidity;BMP_temperature;BMP_pressure;BME280_temperature;BME280_humidity;BME280_pressure;Samples;Min_cycle;Max_cycle;Signal;HPM_P1;HPM_P2
2021/06/01 00:00:13;;;;;;;5.28;2.08;;;;;;;15.71;43.62;101931.81;5047276;28;20095;-53
2021/06/01 00:02:40;;;;;;;6.47;2.30;;;;;;;15.70;43.42;101925.63;5043927;28;20068;-58
2021/06/01 00:05:09;;;;;;;7.55;2.28;;;;;;;15.65;44.20;101926.91;5041552;28;20042;-51
2021/06/01 00:07:36;;;;;;;6.13;2.13;;;;;;;15.61;44.36;101928.09;5032489;28;20044;-53
2021/06/01 00:10:05;;;;;;;6.88;2.17;;;;;;;15.51;44.34;101931.38;5043835;28;20776;-52
2021/06/01 00:12:31;;;;;;;5.47;2.58;;;;;;;15.49;45.21;101925.34;5040669;28;20056;-51
2021/06/01 00:14:58;;;;;;;7.55;2.45;;;;;;;15.38;44.76;101923.44;5042623;28;20038;-52
2021/06/01 00:17:25;;;;;;;6.47;2.53;;;;;;;15.33;44.55;101927.34;5052052;28;20508;-57
2021/06/01 00:19:53;;;;;;;6.65;2.75;;;;;;;15.40;44.74;101918.00;5042492;28;20041;-58
2021/06/01 00:22:20;;;;;;;7.47;2.70;;;;;;;15.32;44.75;101912.41;5064495;28;20061;-58
2021/06/01 00:24:47;;;;;;;6.38;2.22;;;;;;;15.25;45.54;101909.31;5047157;28;20526;-58
2021/06/01 00:27:14;;;;;;;6.80;2.60;;;;;;;15.23;45.75;101913.00;5035050;28;20033;-54
2021/06/01 00:29:41;;;;;;;4.90;2.00;;;;;;;15.07;45.39;101919.38;5042992;28;20049;-52
2021/06/01 00:32:08;;;;;;;5.07;2.08;;;;;;;15.12;44.97;101916.38;5019044;28;20052;-53
2021/06/01 00:34:35;;;;;;;6.80;2.67;;;;;;;15.05;44.48;101905.34;5045941;28;20056;-58
2021/06/01 00:37:02;;;;;;;5.88;2.40;;;;;;;14.98;45.06;101912.91;5041893;28;20065;-52
2021/06/01 00:39:29;;;;;;;7.60;2.10;;;;;;;14.95;45.67;101912.25;5043357;28;20041;-58
2021/06/01 00:41:56;;;;;;;7.38;2.38;;;;;;;14.95;44.98;101910.44;5036456;28;20392;-57
2021/06/01 00:44:22;;;;;;;9.18;2.92;;;;;;;14.95;45.13;101906.94;5039454;28;20091;-57
2021/06/01 00:46:49;;;;;;;8.10;3.15;;;;;;;14.98;44.85;101920.84;5031580;28;20045;-57
2021/06/01 00:49:16;;;;;;;9.90;3.63;;;;;;;14.95;45.18;101918.38;5035831;28;20053;-57
2021/06/01 00:51:46;;;;;;;12.02;3.13;;;;;;;14.92;45.19;101912.44;5040114;28;20045;-57
2021/06/01 00:54:13;;;;;;;7.35;2.83;;;;;;;14.88;45.62;101914.44;5041700;28;20553;-50
2021/06/01 00:56:41;;;;;;;7.57;2.63;;;;;;;14.82;45.29;101914.84;5043728;28;20037;-54
2021/06/01 00:59:08;;;;;;;6.43;2.50;;;;;;;14.84;45.36;101916.44;5039760;28;20067;-52
2021/06/01 01:01:35;;;;;;;4.97;2.20;;;;;;;14.79;45.87;101915.06;5040459;28;20037;-57
2021/06/01 01:04:02;;;;;;;5.75;2.45;;;;;;;14.80;45.80;101914.94;5040575;28;20067;-52
2021/06/01 01:06:57;;;;;;;7.05;2.50;;;;;;;14.72;45.97;101911.94;5040825;28;20084;-52
2021/06/01 01:09:26;;;;;;;6.00;2.40;;;;;;;14.69;46.23;101917.47;5040048;28;20053;-57
2021/06/01 01:12:17;;;;;;;7.68;2.70;;;;;;;14.54;46.41;101911.34;5040721;28;20049;-51
2021/06/01 01:14:48;;;;;;;8.93;3.08;;;;;;;14.59;46.55;101906.59;5044259;28;20047;-52
2021/06/01 01:17:21;;;;;;;5.40;2.45;;;;;;;14.53;46.48;101915.78;5024544;28;20041;-52
2021/06/01 01:19:51;;;;;;;;;;;;;;;14.56;46.52;101913.88;5042840;28;20127;-58
2021/06/01 01:22:18;;;;;;;6.05;2.40;;;;;;;14.45;46.69;101911.94;5040488;28;19920;-58
2021/06/01 01:24:48;;;;;;;5.85;2.55;;;;;;;14.46;46.87;101916.28;5045426;28;20043;-52
2021/06/01 01:27:42;;;;;;;5.63;2.33;;;;;;;14.45;46.75;101919.88;5042285;28;20099;-57
2021/06/01 01:30:11;;;;;;;9.65;3.03;;;;;;;14.43;46.68;101929.72;5042426;28;20044;-54
2021/06/01 01:33:02;;;;;;;6.43;2.95;;;;;;;14.30;46.86;101925.22;5034843;28;20048;-51
2021/06/01 01:35:31;;;;;;;7.75;3.10;;;;;;;14.24;47.43;101924.75;5036748;28;20051;-53
2021/06/01 01:38:00;;;;;;;10.02;3.45;;;;;;;14.23;47.19;101928.34;5039977;28;20388;-51
2021/06/01 01:40:32;;;;;;;6.75;2.95;;;;;;;14.25;47.47;101929.94;5041960;28;20068;-52
2021/06/01 01:43:02;;;;;;;7.20;3.25;;;;;;;14.25;46.77;101927.28;5067955;28;20440;-53
2021/06/01 01:45:32;;;;;;;9.35;3.65;;;;;;;14.20;47.28;101929.38;5033292;28;20049;-58
2021/06/01 01:50:49;;;;;;;8.30;3.05;;;;;;;14.02;47.69;101921.66;5035793;28;20033;-54
2021/06/01 01:53:16;;;;;;;6.32;3.00;;;;;;;14.04;47.92;101926.84;5040028;28;20048;-52
2021/06/01 01:55:47;;;;;;;6.78;3.08;;;;;;;14.00;47.97;101923.56;5039559;28;20374;-57
2021/06/01 01:58:15;;;;;;;12.18;4.60;;;;;;;13.97;48.04;101915.78;5041436;28;20033;-54
2021/06/01 02:00:44;;;;;;;15.57;7.18;;;;;;;13.97;48.24;101926.38;5034489;28;20045;-58
2021/06/01 02:03:11;;;;;;;13.70;5.43;;;;;;;13.85;48.64;101924.50;5039068;28;20042;-51
2021/06/01 02:05:39;;;;;;;9.38;4.53;;;;;;;13.79;48.57;101928.38;5020531;28;20148;-52
2021/06/01 02:08:11;;;;;;;7.68;3.67;;;;;;;13.79;48.87;101924.88;5038169;28;20050;-58
2021/06/01 02:10:38;;;;;;;10.95;3.67;;;;;;;13.65;49.24;101929.22;5040473;28;20055;-58
2021/06/01 02:13:05;;;;;;;9.45;4.20;;;;;;;13.66;49.58;101920.34;5042716;28;20049;-58
2021/06/01 02:15:32;;;;;;;12.80;5.75;;;;;;;13.57;49.99;101920.06;5038462;28;20504;-58
2021/06/01 02:17:59;;;;;;;16.90;6.43;;;;;;;13.56;50.04;101916.56;5039179;28;20034;-58
2021/06/01 02:20:26;;;;;;;16.15;6.90;;;;;;;13.52;50.07;101920.34;5044829;28;20049;-58
2021/06/01 02:25:58;;;;;;;9.93;4.50;;;;;;;13.49;50.08;101907.31;5043003;28;20049;-58
2021/06/01 02:28:34;;;;;;;9.25;4.35;;;;;;;13.52;50.06;101908.00;5038852;28;20129;-58
2021/06/01 02:31:03;;;;;;;8.85;4.18;;;;;;;13.46;50.70;101908.34;5045521;28;20473;-58
2021/06/01 02:33:32;;;;;;;8.35;3.42;;;;;;;13.51;50.90;101913.34;5039290;28;20041;-58
2021/06/01 02:36:00;;;;;;;7.38;3.35;;;;;;;13.50;51.13;101909.03;5039669;28;20515;-58
2021/06/01 02:38:30;;;;;;;10.27;4.22;;;;;;;13.46;51.41;101897.78;5038755;28;20062;-51
2021/06/01 02:40:57;;;;;;;7.45;3.50;;;;;;;13.49;51.28;101905.50;5034156;28;20049;-57
2021/06/01 02:43:24;;;;;;;10.23;3.60;;;;;;;13.46;51.52;101902.22;5035392;28;20065;-58
2021/06/01 02:45:51;;;;;;;8.63;3.50;;;;;;;13.38;52.08;101901.84;5048018;28;20124;-58
2021/06/01 02:48:20;;;;;;;9.65;4.25;;;;;;;13.30;52.25;101908.38;5041131;28;20045;-58
2021/06/01 02:50:49;;;;;;;6.88;3.30;;;;;;;13.32;52.98;101905.63;5038884;28;20068;-57
2021/06/01 02:53:16;;;;;;;8.38;3.35;;;;;;;13.34;52.82;101904.59;5043296;28;20067;-51
2021/06/01 02:55:43;;;;;;;5.43;2.80;;;;;;;13.32;52.95;101911.78;5039443;28;20056;-50
2021/06/01 02:58:11;;;;;;;6.25;2.55;;;;;;;13.35;53.33;101914.28;5034891;28;20064;-51
2021/06/01 03:00:39;;;;;;;6.07;2.90;;;;;;;13.20;53.24;101907.25;5035204;28;20049;-51
2021/06/01 03:03:07;;;;;;;7.88;3.40;;;;;;;13.19;53.77;101911.66;5044584;28;20049;-52
2021/06/01 03:05:34;;;;;;;6.40;2.80;;;;;;;13.17;53.87;101905.63;5037514;28;20120;-53
2021/06/01 03:08:20;;;;;;;6.80;3.10;;;;;;;13.12;54.07;101898.94;5041461;28;20373;-53
2021/06/01 03:10:47;;;;;;;6.05;2.58;;;;;;;13.15;54.42;101904.03;5042098;28;20136;-52
2021/06/01 03:13:13;;;;;;;6.03;2.83;;;;;;;13.13;54.81;101904.13;5033693;28;20466;-58
2021/06/01 03:15:40;;;;;;;5.97;3.03;;;;;;;13.07;55.04;101900.97;5034758;28;20111;-51
2021/06/01 03:18:07;;;;;;;5.20;2.72;;;;;;;13.01;54.74;101897.75;5033554;28;20048;-51
2021/06/01 03:20:34;;;;;;;7.03;3.03;;;;;;;13.00;55.16;101906.59;5031015;28;20099;-58
2021/06/01 03:23:01;;;;;;;5.90;3.00;;;;;;;12.99;55.15;101899.66;5041177;28;20052;-51
2021/06/01 03:25:28;;;;;;;5.72;2.95;;;;;;;12.94;55.11;101892.91;5044839;28;20037;-50
2021/06/01 03:27:55;;;;;;;7.65;3.13;;;;;;;12.88;55.46;101896.75;5040490;28;20052;-51
2021/06/01 03:30:22;;;;;;;5.78;2.65;;;;;;;12.89;55.83;101892.34;5043968;28;20144;-58
2021/06/01 03:32:49;;;;;;;7.00;3.15;;;;;;;12.71;56.60;101899.53;5021864;28;20045;-51
2021/06/01 03:35:16;;;;;;;6.18;2.95;;;;;;;12.66;56.63;101898.00;5040869;28;20057;-51
2021/06/01 03:37:43;;;;;;;5.93;2.40;;;;;;;12.60;56.46;101903.66;5041180;28;20511;-52
2021/06/01 03:40:11;;;;;;;6.22;3.28;;;;;;;12.57;56.39;101898.56;5041527;28;20080;-48
2021/06/01 03:42:38;;;;;;;5.50;2.70;;;;;;;12.58;55.79;101896.75;5035546;28;20106;-58
2021/06/01 03:45:05;;;;;;;7.47;2.85;;;;;;;12.55;55.93;101892.50;5040610;28;20045;-51
2021/06/01 03:47:32;;;;;;;6.63;2.90;;;;;;;12.47;56.10;101892.09;5040451;28;20045;-58
2021/06/01 03:49:59;;;;;;;6.43;2.63;;;;;;;12.45;56.09;101894.81;5071796;28;20051;-58
2021/06/01 03:52:26;;;;;;;6.97;2.92;;;;;;;12.41;56.36;101892.44;5070328;28;20076;-51
2021/06/01 03:54:53;;;;;;;6.72;2.85;;;;;;;12.40;56.42;101901.28;5072620;28;20048;-51
2021/06/01 03:57:20;;;;;;;5.93;2.78;;;;;;;12.44;56.72;101901.00;5073969;28;20376;-58
2021/06/01 03:59:46;;;;;;;7.30;2.75;;;;;;;12.50;56.23;101903.31;5071382;28;20044;-58
2021/06/01 04:02:13;;;;;;;7.10;2.90;;;;;;;12.49;56.06;101903.41;5071390;28;20063;-53
2021/06/01 04:04:40;;;;;;;8.65;3.47;;;;;;;12.54;56.36;101909.25;5073245;28;20407;-50
2021/06/01 04:07:09;;;;;;;6.43;2.60;;;;;;;12.43;57.19;101904.59;5073230;28;20541;-58
2021/06/01 04:09:36;;;;;;;5.93;2.90;;;;;;;12.53;57.49;101910.22;5074335;28;20102;-54
2021/06/01 04:12:03;;;;;;;6.15;2.88;;;;;;;12.49;57.54;101900.78;5071580;28;20056;-50
2021/06/01 04:14:30;;;;;;;8.38;3.00;;;;;;;12.46;57.29;101904.44;5073336;28;20048;-53
2021/06/01 04:16:57;;;;;;;6.18;3.10;;;;;;;12.48;58.18;101905.19;5074572;28;20048;-53
2021/06/01 04:19:24;;;;;;;7.00;3.10;;;;;;;12.46;57.60;101911.47;5056661;28;20057;-50
2021/06/01 04:21:52;;;;;;;9.95;3.10;;;;;;;12.46;58.22;101909.72;5074259;28;20060;-51
2021/06/01 04:24:20;;;;;;;6.88;3.00;;;;;;;12.48;57.39;101909.63;5073503;28;20072;-53
2021/06/01 04:26:47;;;;;;;6.20;2.88;;;;;;;12.45;58.24;101915.06;5072913;28;20415;-52
2021/06/01 04:29:14;;;;;;;8.18;3.00;;;;;;;12.40;57.71;101912.69;5071343;28;20444;-54
2021/06/01 04:31:41;;;;;;;8.55;3.30;;;;;;;12.37;58.19;101914.66;5070237;28;20454;-58
2021/06/01 04:34:11;;;;;;;7.75;3.10;;;;;;;12.39;58.67;101905.69;5073671;28;20055;-60
2021/06/01 04:36:38;;;;;;;8.70;3.10;;;;;;;12.44;58.62;101902.81;5071469;28;20064;-58
2021/06/01 04:39:05;;;;;;;8.45;3.78;;;;;;;12.46;58.35;101920.25;5070738;28;20041;-58
2021/06/01 04:41:35;;;;;;;8.20;3.45;;;;;;;12.49;58.35;101912.16;5074095;28;20091;-59
2021/06/01 04:44:03;;;;;;;6.78;3.20;;;;;;;12.49;58.27;101917.44;5056256;28;20056;-57
2021/06/01 04:46:30;;;;;;;6.82;3.13;;;;;;;12.52;58.80;101917.25;5039923;28;20504;-58
2021/06/01 04:48:57;;;;;;;7.85;3.45;;;;;;;12.55;58.06;101915.41;5073771;28;20083;-58
2021/06/01 04:51:24;;;;;;;7.43;3.40;;;;;;;12.57;58.23;101916.16;5073721;28;20060;-53
2021/06/01 04:53:53;;;;;;;7.40;3.40;;;;;;;12.60;58.60;101916.84;5072436;28;20048;-52
2021/06/01 04:56:20;;;;;;;10.40;4.60;;;;;;;12.70;57.96;101914.53;5073667;28;20102;-51
2021/06/01 04:58:51;;;;;;;10.52;4.50;;;;;;;12.75;56.59;101916.88;5073452;28;20128;-54
2021/06/01 05:01:18;;;;;;;11.45;5.20;;;;;;;12.82;55.72;101913.81;5073409;28;20408;-58
2021/06/01 05:03:45;;;;;;;10.02;4.32;;;;;;;12.85;55.57;101915.44;5073305;28;20131;-57
2021/06/01 05:06:12;;;;;;;10.18;4.85;;;;;;;12.89;55.49;101914.31;5073230;28;20055;-58
2021/06/01 05:08:39;;;;;;;9.02;4.03;;;;;;;13.01;54.88;101910.97;5071843;28;20044;-58
2021/06/01 05:11:05;;;;;;;11.68;4.80;;;;;;;13.09;54.98;101909.66;5054431;28;20522;-58
2021/06/01 05:13:32;;;;;;;11.38;4.63;;;;;;;13.10;54.91;101908.72;5053887;28;20527;-54
2021/06/01 05:15:59;;;;;;;10.82;5.07;;;;;;;13.16;55.79;101911.00;5073029;28;20044;-54
2021/06/01 05:18:26;;;;;;;10.32;5.00;;;;;;;13.24;54.28;101910.53;5071470;28;20044;-57
2021/06/01 05:21:03;;;;;;;9.95;4.32;;;;;;;13.33;54.31;101910.84;5073301;28;20388;-52
2021/06/01 05:23:30;;;;;;;12.57;4.80;;;;;;;13.46;53.31;101907.50;5071910;28;20051;-58
2021/06/01 05:25:57;;;;;;;10.18;4.22;;;;;;;13.51;53.68;101908.06;5072045;28;20388;-53
2021/06/01 05:28:24;;;;;;;9.60;5.10;;;;;;;13.58;53.74;101906.75;5071248;28;20495;-51
2021/06/01 05:33:58;;;;;;;8.27;3.65;;;;;;;13.81;53.05;101902.69;5050642;28;20573;-51
2021/06/01 05:36:25;;;;;;;9.95;4.60;;;;;;;13.91;52.80;101900.31;5034200;28;20068;-51
2021/06/01 05:38:52;;;;;;;12.05;4.00;;;;;;;13.94;53.41;101900.13;5050698;28;20507;-52
2021/06/01 05:41:19;;;;;;;12.40;4.85;;;;;;;14.03;53.50;101896.06;5061836;28;20404;-51
2021/06/01 05:43:46;;;;;;;9.27;4.53;;;;;;;14.13;53.06;101894.53;5039620;28;20049;-52
2021/06/01 05:46:13;;;;;;;8.80;4.38;;;;;;;14.24;52.54;101891.19;5038411;28;20045;-50
2021/06/01 05:48:40;;;;;;;10.18;4.43;;;;;;;14.30;52.26;101893.47;5032595;28;20518;-57
2021/06/01 05:51:07;;;;;;;10.68;4.35;;;;;;;14.40;52.41;101891.06;5031541;28;20049;-53
2021/06/01 05:53:34;;;;;;;12.18;4.80;;;;;;;14.51;52.86;101885.91;5031114;28;20045;-51
2021/06/01 05:56:01;;;;;;;12.60;5.53;;;;;;;14.66;52.73;101888.53;5031479;28;20057;-57
2021/06/01 05:58:32;;;;;;;13.40;5.88;;;;;;;14.79;51.62;101891.22;5029837;28;20044;-57
2021/06/01 06:00:58;;;;;;;15.10;5.88;;;;;;;14.86;52.50;101887.19;5031338;28;20495;-57
2021/06/01 06:03:25;;;;;;;12.90;5.97;;;;;;;15.02;52.40;101894.97;5031220;28;20053;-57
2021/06/01 06:05:52;;;;;;;12.52;6.10;;;;;;;15.10;52.11;101886.53;5032340;28;20046;-50
2021/06/01 06:08:20;;;;;;;17.35;6.45;;;;;;;15.23;51.43;101890.03;5032143;28;20077;-57
2021/06/01 06:10:48;;;;;;;12.25;5.30;;;;;;;15.36;50.53;101890.03;5014695;28;20053;-57
2021/06/01 06:13:16;;;;;;;10.82;4.78;;;;;;;15.48;51.08;101891.00;5030385;28;20049;-57
2021/06/01 06:15:43;;;;;;;9.77;4.15;;;;;;;15.60;51.33;101891.91;5028775;28;20514;-57
2021/06/01 06:18:13;;;;;;;9.70;3.88;;;;;;;15.72;51.38;101899.88;5013565;28;20374;-51
2021/06/01 06:20:40;;;;;;;9.20;4.47;;;;;;;15.87;51.54;101891.84;5032151;28;20045;-57
2021/06/01 06:23:07;;;;;;;9.90;4.68;;;;;;;15.98;51.22;101891.91;5032415;28;20045;-57
2021/06/01 06:25:34;;;;;;;10.77;5.00;;;;;;;16.15;50.69;101895.16;5030990;28;20049;-57
2021/06/01 06:28:01;;;;;;;9.23;4.60;;;;;;;16.38;50.14;101893.47;5032202;28;20045;-53
2021/06/01 06:30:28;;;;;;;7.85;4.30;;;;;;;16.42;50.21;101891.47;5030034;28;20088;-57
2021/06/01 06:32:55;;;;;;;11.27;4.80;;;;;;;16.63;49.84;101902.28;5030977;28;20045;-54
2021/06/01 06:35:22;;;;;;;9.82;4.43;;;;;;;16.67;49.85;101898.44;5031829;28;20381;-53
2021/06/01 06:37:48;;;;;;;11.93;4.70;;;;;;;16.83;50.19;101893.66;5031938;28;20050;-54
2021/06/01 06:40:16;;;;;;;10.00;4.68;;;;;;;17.00;49.87;101896.88;5031943;28;20053;-55
2021/06/01 06:42:43;;;;;;;9.73;5.05;;;;;;;17.21;48.93;101902.41;5030678;28;20046;-54
2021/06/01 06:45:13;;;;;;;11.25;5.55;;;;;;;17.29;48.91;101897.34;5032165;28;20129;-52
2021/06/01 06:50:16;;;;;;;7.82;3.97;;;;;;;17.56;47.33;101894.34;5030724;28;20048;-52
2021/06/01 06:52:44;;;;;;;7.60;3.40;;;;;;;17.70;46.09;101892.41;5031883;28;20052;-54
2021/06/01 06:55:12;;;;;;;6.32;3.38;;;;;;;17.84;46.70;101893.97;5032100;28;20503;-58
2021/06/01 06:57:40;;;;;;;9.48;3.95;;;;;;;17.92;45.99;101896.06;5031832;28;20049;-54
2021/06/01 07:00:09;;;;;;;8.93;3.80;;;;;;;17.94;46.39;101886.13;5030479;28;20061;-55
2021/06/01 07:02:36;;;;;;;9.52;3.90;;;;;;;18.17;46.16;101882.44;5031499;28;20076;-55
2021/06/01 07:05:04;;;;;;;8.40;3.63;;;;;;;18.33;45.27;101890.03;5031609;28;20056;-57
2021/06/01 07:07:31;;;;;;;7.15;3.85;;;;;;;18.49;45.34;101872.81;5031542;28;20053;-57
2021/06/01 07:09:58;;;;;;;13.23;4.15;;;;;;;18.57;44.59;101873.03;5031491;28;20140;-55
2021/06/01 07:12:25;;;;;;;9.38;4.28;;;;;;;18.77;45.12;101868.69;5031809;28;20052;-57
2021/06/01 07:15:03;;;;;;;7.80;3.60;;;;;;;18.99;44.36;101874.88;5031807;28;20523;-57
2021/06/01 07:17:30;;;;;;;7.15;3.67;;;;;;;19.25;43.89;101878.00;5030636;28;20053;-54
2021/06/01 07:19:57;;;;;;;8.02;3.97;;;;;;;19.38;44.03;101878.63;5031684;28;20096;-58
2021/06/01 07:22:24;;;;;;;8.30;4.20;;;;;;;19.52;43.02;101871.25;5031758;28;20045;-58
2021/06/01 07:24:51;;;;;;;7.80;3.80;;;;;;;19.62;43.42;101864.16;5031587;28;20484;-58
2021/06/01 07:27:18;;;;;;;8.40;4.80;;;;;;;19.89;43.85;101862.69;5030637;28;20037;-59
2021/06/01 07:29:44;;;;;;;9.27;4.20;;;;;;;20.05;43.73;101865.69;5031705;28;20045;-56
2021/06/01 07:32:11;;;;;;;9.88;4.43;;;;;;;20.20;43.21;101858.13;5030583;28;20050;-56
2021/06/01 07:34:38;;;;;;;7.15;3.40;;;;;;;20.37;41.27;101861.09;5030259;28;20139;-59
2021/06/01 07:37:05;;;;;;;7.30;3.67;;;;;;;20.30;41.30;101860.81;5030957;28;20064;-58
2021/06/01 07:39:32;;;;;;;8.20;4.43;;;;;;;20.47;41.36;101861.13;5030771;28;20101;-56
2021/06/01 07:41:59;;;;;;;9.18;4.00;;;;;;;20.61;40.92;101860.66;5031632;28;20041;-56
2021/06/01 07:44:25;;;;;;;6.97;3.72;;;;;;;20.75;40.81;101854.94;5034458;28;20507;-58
2021/06/01 07:46:52;;;;;;;7.57;4.15;;;;;;;21.03;40.32;101862.22;5034469;28;20049;-58
2021/06/01 07:49:19;;;;;;;9.93;4.32;;;;;;;21.17;39.72;101859.06;5034345;28;20050;-59
2021/06/01 07:51:46;;;;;;;6.53;3.60;;;;;;;21.49;40.18;101859.66;5034825;28;20488;-58
2021/06/01 07:54:13;;;;;;;7.35;3.88;;;;;;;21.51;37.41;101863.03;5033715;28;20046;-58
2021/06/01 07:56:40;;;;;;;8.07;3.95;;;;;;;21.43;37.92;101861.09;5000910;28;20056;-58
2021/06/01 07:59:06;;;;;;;7.82;4.00;;;;;;;21.45;37.82;101859.13;5034553;28;20051;-58
2021/06/01 08:01:33;;;;;;;9.85;3.35;;;;;;;21.67;38.25;101863.28;5034703;28;20111;-56
2021/06/01 08:04:00;;;;;;;9.73;4.10;;;;;;;22.00;36.69;101855.63;5034220;28;20049;-57
2021/06/01 08:06:30;;;;;;;8.13;3.80;;;;;;;22.16;36.46;101846.09;5033350;28;20049;-57
2021/06/01 08:08:57;;;;;;;7.47;4.00;;;;;;;22.40;37.10;101840.97;5034400;28;20051;-57
2021/06/01 08:11:24;;;;;;;8.07;3.42;;;;;;;22.61;36.63;101839.81;5034591;28;20573;-57
2021/06/01 08:13:51;;;;;;;8.70;3.75;;;;;;;22.66;36.10;101842.88;5034309;28;20054;-59
2021/06/01 08:16:18;;;;;;;7.22;3.90;;;;;;;22.87;35.28;101845.19;5033287;28;20088;-58
2021/06/01 08:19:10;;;;;;;9.07;4.18;;;;;;;22.74;35.26;101844.75;5034331;28;20050;-56
2021/06/01 08:24:17;;;;;;;7.25;3.92;;;;;;;23.32;34.71;101837.94;5034451;28;20049;-57
2021/06/01 08:26:44;;;;;;;7.85;3.50;;;;;;;23.31;34.38;101836.25;5034141;28;20053;-58
2021/06/01 08:29:13;;;;;;;8.60;3.60;;;;;;;23.56;35.29;101833.69;5034130;28;20042;-57
2021/06/01 08:31:41;;;;;;;8.02;3.58;;;;;;;23.67;33.92;101835.22;5033995;28;20041;-60
2021/06/01 08:34:08;;;;;;;8.40;3.58;;;;;;;24.04;34.59;101831.34;5016377;28;20152;-57
2021/06/01 08:36:36;;;;;;;8.05;3.50;;;;;;;24.06;33.37;101832.00;5032829;28;20474;-57
2021/06/01 08:39:08;;;;;;;6.90;3.63;;;;;;;24.06;32.90;101829.31;5032810;28;20515;-57
2021/06/01 08:41:36;;;;;;;7.47;3.90;;;;;;;24.13;33.64;101830.34;5034151;28;20491;-57
2021/06/01 08:44:04;;;;;;;8.20;3.65;;;;;;;24.46;33.00;101830.38;5034140;28;20049;-57
2021/06/01 08:46:33;;;;;;;7.60;3.70;;;;;;;24.37;33.53;101829.53;5033859;28;20045;-58
2021/06/01 08:49:00;;;;;;;7.93;3.72;;;;;;;24.40;33.10;101822.97;5033881;28;20061;-59
2021/06/01 08:51:27;;;;;;;12.15;3.92;;;;;;;24.56;32.15;101822.16;5033649;28;20071;-57
2021/06/01 08:53:57;;;;;;;9.20;3.45;;;;;;;24.76;32.17;101822.63;5031936;28;20057;-59
2021/06/01 08:56:26;;;;;;;8.10;3.60;;;;;;;25.00;31.92;101821.75;5032568;28;20053;-59
2021/06/01 08:58:53;;;;;;;8.25;3.63;;;;;;;25.09;31.64;101820.72;5032246;28;20052;-60
2021/06/01 09:01:21;;;;;;;6.97;3.55;;;;;;;25.07;30.91;101819.22;5032354;28;20051;-60
2021/06/01 09:03:54;;;;;;;7.40;3.33;;;;;;;25.39;30.90;101828.25;5032724;28;20516;-59
2021/06/01 09:06:28;;;;;;;9.88;3.50;;;;;;;25.54;30.41;101828.34;5032384;28;20045;-59
2021/06/01 09:20:55;;;;;;;7.70;3.88;;;;;;;25.48;29.02;101802.94;5033137;28;20061;-59
2021/06/01 09:22:39;;;;;;;6.33;3.30;;;;;;;25.57;29.59;101817.22;5032419;28;20049;-60
2021/06/01 09:25:07;;;;;;;8.02;3.65;;;;;;;25.45;28.06;101808.69;5033224;28;20288;-58
2021/06/01 09:27:44;;;;;;;5.38;2.83;;;;;;;25.61;28.66;101800.53;5033158;28;20049;-60
2021/06/01 09:30:31;;;;;;;6.47;2.83;;;;;;;25.80;28.68;101796.53;5032969;28;20428;-59
2021/06/01 09:32:59;;;;;;;5.43;2.75;;;;;;;26.24;28.25;101797.78;5048337;28;20045;-59
2021/06/01 09:35:49;;;;;;;8.25;2.88;;;;;;;26.41;27.81;101789.53;5032849;28;20045;-60
2021/06/01 09:38:19;;;;;;;6.95;2.67;;;;;;;26.26;25.96;101784.09;5029238;28;20061;-60
2021/06/01 09:40:47;;;;;;;5.60;2.78;;;;;;;26.18;26.06;101781.47;5031543;28;20049;-60
2021/06/01 09:43:15;;;;;;;6.43;3.00;;;;;;;26.56;26.86;101786.88;5032781;28;20052;-58
2021/06/01 09:45:43;;;;;;;6.35;2.78;;;;;;;26.67;26.11;101781.06;5032696;28;20096;-59
2021/06/01 09:48:11;;;;;;;4.43;2.38;;;;;;;26.62;24.07;101789.69;5031549;28;20049;-58
2021/06/01 09:53:22;;;;;;;4.55;2.40;;;;;;;26.78;23.61;101787.88;5031794;28;20124;-59
2021/06/01 09:55:49;;;;;;;7.93;2.83;;;;;;;26.45;26.16;101782.75;5032651;28;20041;-58
2021/06/01 09:58:27;;;;;;;9.13;2.95;;;;;;;26.72;24.63;101775.94;5032509;28;20542;-59
2021/06/01 10:00:55;;;;;;;6.97;2.80;;;;;;;26.85;27.00;101774.50;5032620;28;20519;-58
2021/06/01 10:03:41;;;;;;;6.03;2.67;;;;;;;27.35;26.61;101772.00;5031522;28;20129;-58
2021/06/01 10:06:08;;;;;;;5.80;2.50;;;;;;;27.18;23.55;101771.41;5016646;28;20393;-58
2021/06/01 10:08:41;;;;;;;4.28;2.20;;;;;;;27.64;25.06;101771.16;5032474;28;20045;-59
2021/06/01 10:11:10;;;;;;;5.88;2.97;;;;;;;27.64;23.00;101771.16;5031124;28;20057;-59
2021/06/01 10:13:38;;;;;;;4.82;2.40;;;;;;;27.66;22.56;101764.53;5014904;28;20132;-59
2021/06/01 10:16:08;;;;;;;3.60;2.00;;;;;;;27.48;21.31;101758.72;5031108;28;20132;-58
2021/06/01 10:18:36;;;;;;;5.35;2.53;;;;;;;27.25;23.22;101758.81;5030742;28;20590;-59
2021/06/01 10:21:04;;;;;;;5.43;2.15;;;;;;;27.69;21.67;101752.47;5031091;28;20049;-57
2021/06/01 10:23:39;;;;;;;3.60;1.92;;;;;;;27.91;21.04;101755.19;5031113;28;20671;-57
2021/06/01 10:26:08;;;;;;;3.75;2.00;;;;;;;28.20;21.38;101761.53;5032231;28;20435;-58
2021/06/01 10:28:38;;;;;;;5.18;2.08;;;;;;;27.96;20.21;101753.59;4998381;28;20061;-58
2021/06/01 10:31:08;;;;;;;4.80;1.90;;;;;;;27.97;20.55;101752.56;5030910;28;20053;-59
2021/06/01 10:33:42;;;;;;;2.58;1.77;;;;;;;27.75;20.61;101746.31;5032158;28;20045;-58
2021/06/01 10:48:42;;;;;;;4.72;1.90;;;;;;;29.17;19.69;101732.78;5032028;28;20068;-57
2021/06/01 10:50:31;;;;;;;4.95;2.30;;;;;;;29.41;18.90;101728.75;5031062;28;20103;-58
2021/06/01 10:53:21;;;;;;;4.78;2.00;;;;;;;29.30;19.43;101732.88;5030617;28;20049;-58
2021/06/01 10:55:51;;;;;;;3.88;1.80;;;;;;;29.92;19.54;101727.38;5031919;28;20500;-59
2021/06/01 10:58:43;;;;;;;5.88;2.17;;;;;;;29.67;18.73;101727.13;5032205;28;20500;-59
2021/06/01 11:04:08;;;;;;;4.75;2.35;;;;;;;29.49;18.16;101725.00;5030861;28;20057;-59
2021/06/01 11:06:47;;;;;;;6.30;2.05;;;;;;;29.71;19.57;101722.09;5031700;28;20096;-59
2021/06/01 11:09:32;;;;;;;5.47;2.00;;;;;;;29.75;19.05;101720.66;5030486;28;20091;-59
2021/06/01 11:12:00;;;;;;;4.15;1.83;;;;;;;29.65;18.71;101721.88;5030511;28;20054;-59
2021/06/01 11:14:31;;;;;;;3.55;1.73;;;;;;;29.81;17.87;101720.66;5031979;28;20124;-60
2021/06/01 11:16:59;;;;;;;4.85;1.67;;;;;;;30.21;18.20;101705.47;5034285;28;20045;-60
2021/06/01 11:20:00;;;;;;;4.68;2.20;;;;;;;30.47;19.10;101704.63;5035277;28;20060;-59
2021/06/01 11:23:40;;;;;;;4.75;2.10;;;;;;;30.54;17.30;101710.03;5034240;28;20396;-59
2021/06/01 11:33:36;;;;;;;5.57;2.10;;;;;;;30.65;18.86;101693.94;5034252;28;20048;-58
2021/06/01 11:36:09;;;;;;;3.67;1.92;;;;;;;30.99;18.01;101681.06;5017737;28;20045;-59
2021/06/01 11:43:48;;;;;;;4.05;1.90;;;;;;;30.96;18.19;101681.47;5034740;28;20635;-59
2021/06/01 11:51:28;;;;;;;3.53;1.83;;;;;;;31.37;17.94;101690.28;5034878;28;20456;-59
2021/06/01 11:54:05;;;;;;;3.60;1.75;;;;;;;31.39;17.30;101669.16;5033730;28;20119;-60
2021/06/01 12:04:48;;;;;;;4.25;1.70;;;;;;;31.23;17.39;101666.97;5034727;28;20053;-59
2021/06/01 12:13:32;;;;;;;3.33;1.75;;;;;;;31.27;16.54;101652.72;5034606;28;20049;-58
2021/06/01 12:18:49;;;;;;;3.40;1.88;;;;;;;31.35;15.81;101652.47;5034368;28;20128;-59
2021/06/01 12:21:22;;;;;;;4.35;2.05;;;;;;;31.28;16.67;101657.09;5034367;28;20534;-60
2021/06/01 12:23:58;;;;;;;6.20;1.90;;;;;;;31.23;16.91;101648.78;5034253;28;20041;-60
2021/06/01 12:26:36;;;;;;;6.22;1.92;;;;;;;31.32;17.69;101641.22;5034618;28;20396;-59
2021/06/01 12:32:22;;;;;;;3.92;2.08;;;;;;;31.15;16.67;101641.72;5033089;28;20060;-59
2021/06/01 12:35:03;;;;;;;3.88;1.75;;;;;;;31.80;16.75;101635.22;5034087;28;20049;-59
2021/06/01 13:19:38;;;;;;;3.70;1.73;;;;;;;32.15;17.23;101602.06;5032992;28;20644;-60
2021/06/01 13:46:52;;;;;;;3.22;1.75;;;;;;;32.39;16.85;101566.00;5031402;28;20052;-59
2021/06/01 13:49:30;;;;;;;5.32;1.80;;;;;;;32.49;17.33;101569.84;5031522;28;20049;-61
2021/06/01 13:57:24;;;;;;;3.10;1.67;;;;;;;32.50;16.81;101568.75;5032342;28;20045;-59
2021/06/01 13:59:58;;;;;;;6.07;2.17;;;;;;;32.46;16.89;101562.09;5031122;28;20408;-59
2021/06/01 15:32:38;;;;;;;3.28;1.63;;;;;;;31.23;17.61;101490.41;5054076;28;20118;-63
2021/06/01 15:49:05;;;;;;;4.38;1.65;;;;;;;31.84;18.45;101478.72;5053829;28;20129;-62
2021/06/01 16:43:43;;;;;;;3.72;1.70;;;;;;;30.57;18.77;101451.81;5053781;28;20051;-59